createdAt,value
2022-10-09T00:01:30.581Z,8.30
2022-10-09T00:03:59.364Z,9.40
2022-10-09T00:06:33.119Z,8.40
2022-10-09T00:09:02.740Z,8.90
2022-10-09T00:11:32.745Z,9.80
2022-10-09T00:14:01.276Z,9.30
2022-10-09T00:16:29.521Z,10.10
2022-10-09T00:18:58.508Z,8.60
2022-10-09T00:21:30.324Z,8.30
2022-10-09T00:24:01.415Z,8.40
2022-10-09T00:26:29.601Z,8.10
2022-10-09T00:28:58.418Z,9.10
2022-10-09T00:31:26.513Z,8.50
2022-10-09T00:33:54.328Z,8.50
2022-10-09T00:36:24.929Z,9.60
2022-10-09T00:38:54.650Z,8.00
2022-10-09T00:41:31.171Z,7.40
2022-10-09T00:44:02.338Z,7.90
2022-10-09T00:46:48.290Z,8.40
2022-10-09T00:49:34.002Z,7.90
2022-10-09T00:52:05.077Z,8.20
2022-10-09T00:54:37.606Z,7.90
2022-10-09T00:57:05.685Z,8.50
2022-10-09T00:59:34.049Z,9.00
2022-10-09T01:02:02.134Z,9.90
2022-10-09T01:04:29.957Z,10.20
2022-10-09T01:07:34.153Z,9.50
2022-10-09T01:10:26.472Z,9.70
2022-10-09T01:13:15.605Z,9.40
2022-10-09T01:16:02.610Z,8.70
2022-10-09T01:18:47.091Z,8.20
2022-10-09T01:21:33.657Z,8.70
2022-10-09T01:24:22.055Z,8.40
2022-10-09T01:27:12.431Z,8.10
2022-10-09T01:29:50.338Z,8.70
2022-10-09T01:32:23.357Z,8.90
2022-10-09T01:34:52.839Z,8.30
2022-10-09T01:37:23.493Z,8.00
2022-10-09T01:39:52.540Z,7.80
2022-10-09T01:42:22.976Z,7.80
2022-10-09T01:44:51.023Z,7.30
2022-10-09T01:47:21.022Z,7.50
2022-10-09T01:49:48.723Z,7.60
2022-10-09T01:52:19.838Z,7.70
2022-10-09T01:55:17.005Z,7.90
2022-10-09T01:57:54.675Z,6.30
2022-10-09T02:00:23.283Z,7.30
2022-10-09T02:02:53.941Z,6.50
2022-10-09T02:05:25.878Z,6.90
2022-10-09T02:07:55.569Z,6.60
2022-10-09T02:10:25.015Z,6.20
2022-10-09T02:13:02.020Z,6.00
2022-10-09T02:15:41.189Z,6.30
2022-10-09T02:18:13.391Z,6.90
2022-10-09T02:20:48.214Z,6.90
2022-10-09T02:23:18.527Z,6.80
2022-10-09T02:25:46.776Z,7.40
2022-10-09T02:28:15.070Z,7.70
2022-10-09T02:31:13.769Z,7.70
2022-10-09T02:33:41.761Z,7.20
2022-10-09T02:36:09.995Z,6.80
2022-10-09T02:38:37.794Z,8.10
2022-10-09T02:41:05.773Z,7.70
2022-10-09T02:43:33.507Z,8.10
2022-10-09T02:46:01.492Z,7.90
2022-10-09T02:48:29.454Z,8.10
2022-10-09T02:50:57.390Z,7.30
2022-10-09T02:53:25.332Z,8.10
2022-10-09T02:55:53.120Z,7.40
2022-10-09T02:58:20.832Z,8.10
2022-10-09T03:00:53.455Z,7.40
2022-10-09T03:03:21.532Z,7.20
2022-10-09T03:06:07.328Z,8.00
2022-10-09T03:08:36.268Z,7.30
2022-10-09T03:11:04.332Z,6.80
2022-10-09T03:13:32.826Z,6.90
2022-10-09T03:16:05.220Z,8.00
2022-10-09T03:18:33.236Z,7.70
2022-10-09T03:21:01.303Z,7.40
2022-10-09T03:23:29.206Z,6.20
2022-10-09T03:25:58.417Z,7.70
2022-10-09T03:28:27.233Z,7.50
2022-10-09T03:30:55.944Z,6.20
2022-10-09T03:33:23.849Z,6.80
2022-10-09T03:35:51.630Z,6.60
2022-10-09T03:38:19.608Z,6.40
2022-10-09T03:40:47.441Z,6.60
2022-10-09T03:43:15.306Z,6.60
2022-10-09T03:45:43.747Z,6.60
2022-10-09T03:48:12.514Z,6.10
2022-10-09T03:50:41.823Z,6.60
2022-10-09T03:53:11.550Z,6.60
2022-10-09T03:55:40.546Z,5.90
2022-10-09T03:58:08.593Z,6.60
2022-10-09T04:00:37.125Z,6.20
2022-10-09T04:03:07.656Z,6.10
2022-10-09T04:05:36.064Z,6.10
2022-10-09T04:08:03.912Z,5.80
2022-10-09T04:10:31.848Z,5.80
2022-10-09T04:12:59.745Z,5.90
2022-10-09T04:15:27.524Z,5.60
2022-10-09T04:17:55.349Z,6.20
2022-10-09T04:20:23.397Z,6.00
2022-10-09T04:22:51.406Z,6.20
2022-10-09T04:25:19.479Z,5.70
2022-10-09T04:27:47.368Z,6.30
2022-10-09T04:30:15.289Z,5.70
2022-10-09T04:32:43.120Z,6.20
2022-10-09T04:35:11.579Z,5.50
2022-10-09T04:37:40.177Z,6.00
2022-10-09T04:40:08.720Z,6.10
2022-10-09T04:42:36.641Z,6.30
2022-10-09T04:45:05.010Z,6.20
2022-10-09T04:47:34.306Z,7.20
2022-10-09T04:50:03.086Z,7.50
2022-10-09T04:52:31.029Z,7.20
2022-10-09T04:54:58.923Z,7.00
2022-10-09T04:57:26.838Z,8.20
2022-10-09T04:59:54.683Z,6.00
2022-10-09T05:02:22.571Z,6.70
2022-10-09T05:04:51.168Z,6.10
2022-10-09T05:07:18.983Z,6.70
2022-10-09T05:09:46.854Z,6.30
2022-10-09T05:12:15.439Z,5.90
2022-10-09T05:14:43.361Z,5.70
2022-10-09T05:17:15.067Z,5.80
2022-10-09T05:19:43.231Z,5.60
2022-10-09T05:22:12.044Z,5.50
2022-10-09T05:24:39.909Z,5.90
2022-10-09T05:27:07.716Z,5.10
2022-10-09T05:29:41.152Z,5.20
2022-10-09T05:32:09.058Z,5.80
2022-10-09T05:34:36.959Z,5.20
2022-10-09T05:37:04.772Z,4.80
2022-10-09T05:39:32.702Z,4.50
2022-10-09T05:42:00.525Z,5.00
2022-10-09T05:44:28.484Z,6.00
2022-10-09T05:46:56.411Z,4.80
2022-10-09T05:49:24.263Z,5.10
2022-10-09T05:51:52.270Z,4.80
2022-10-09T05:54:20.244Z,5.40
2022-10-09T05:56:48.267Z,5.30
2022-10-09T05:59:21.313Z,5.70
2022-10-09T06:01:51.570Z,4.40
2022-10-09T06:04:22.950Z,4.90
2022-10-09T06:06:51.875Z,5.30
2022-10-09T06:09:23.679Z,5.10
2022-10-09T06:11:55.294Z,5.10
2022-10-09T06:14:24.624Z,6.00
2022-10-09T06:16:52.639Z,4.60
2022-10-09T06:19:21.171Z,4.60
2022-10-09T06:21:49.323Z,4.70
2022-10-09T06:24:27.312Z,5.30
2022-10-09T06:26:57.763Z,6.30
2022-10-09T06:29:26.128Z,5.10
2022-10-09T06:31:54.147Z,5.10
2022-10-09T06:34:22.821Z,5.20
2022-10-09T06:36:50.597Z,4.90
2022-10-09T06:39:18.663Z,5.20
2022-10-09T06:41:46.709Z,5.20
2022-10-09T06:44:17.231Z,4.90
2022-10-09T06:46:48.825Z,4.80
2022-10-09T06:49:16.837Z,5.10
2022-10-09T06:51:44.733Z,5.40
2022-10-09T06:54:17.624Z,4.90
2022-10-09T06:56:45.628Z,4.70
2022-10-09T06:59:13.449Z,4.70
2022-10-09T07:01:41.437Z,5.00
2022-10-09T07:04:14.444Z,4.30
2022-10-09T07:06:45.254Z,5.00
2022-10-09T07:09:14.883Z,5.10
2022-10-09T07:11:49.267Z,5.40
2022-10-09T07:14:17.863Z,5.30
2022-10-09T07:16:49.092Z,4.80
2022-10-09T07:19:18.070Z,4.70
2022-10-09T07:21:48.091Z,5.00
2022-10-09T07:24:20.858Z,4.70
2022-10-09T07:26:49.261Z,4.90
2022-10-09T07:29:19.066Z,5.20
2022-10-09T07:31:47.541Z,5.10
2022-10-09T07:34:16.873Z,4.50
2022-10-09T07:36:44.863Z,4.80
2022-10-09T07:39:13.807Z,5.00
2022-10-09T07:41:41.679Z,5.50
2022-10-09T07:44:10.329Z,5.30
2022-10-09T07:46:38.346Z,5.00
2022-10-09T07:49:06.474Z,5.30
2022-10-09T07:51:34.373Z,4.50
2022-10-09T07:54:02.556Z,5.60
2022-10-09T07:56:33.284Z,4.60
2022-10-09T07:59:04.737Z,4.90
2022-10-09T08:01:35.087Z,5.00
2022-10-09T08:04:06.709Z,4.70
2022-10-09T08:06:37.264Z,5.20
2022-10-09T08:09:07.047Z,4.90
2022-10-09T08:11:45.932Z,5.30
2022-10-09T08:14:19.184Z,5.60
2022-10-09T08:16:50.288Z,5.90
2022-10-09T08:19:18.303Z,5.50
2022-10-09T08:21:46.556Z,5.80
2022-10-09T08:24:14.521Z,5.10
2022-10-09T08:26:44.256Z,6.40
2022-10-09T08:29:14.091Z,6.10
2022-10-09T08:31:48.037Z,6.10
2022-10-09T08:34:15.899Z,5.90
2022-10-09T08:36:44.571Z,6.00
2022-10-09T08:39:15.688Z,6.20
2022-10-09T08:42:03.394Z,5.70
2022-10-09T08:44:40.053Z,5.50
2022-10-09T08:47:11.038Z,5.60
2022-10-09T08:49:43.200Z,6.40
2022-10-09T08:52:29.296Z,6.40
2022-10-09T08:55:03.867Z,6.10
2022-10-09T08:57:34.575Z,6.40
2022-10-09T09:00:02.796Z,5.90
2022-10-09T09:02:49.757Z,6.40
2022-10-09T09:05:36.869Z,6.50
2022-10-09T09:08:17.153Z,6.10
2022-10-09T09:11:03.826Z,6.70
2022-10-09T09:13:39.549Z,6.20
2022-10-09T09:16:31.595Z,6.20
2022-10-09T09:19:21.300Z,5.90
2022-10-09T09:21:51.557Z,6.30
2022-10-09T09:24:19.633Z,6.30
2022-10-09T09:26:53.753Z,6.40
2022-10-09T09:29:26.951Z,6.00
2022-10-09T09:32:01.229Z,6.40
2022-10-09T09:34:41.407Z,5.90
2022-10-09T09:37:21.064Z,5.90
2022-10-09T09:42:37.173Z,6.00
2022-10-09T09:45:13.237Z,5.80
2022-10-09T09:47:47.298Z,6.10
2022-10-09T09:50:42.412Z,5.70
2022-10-09T09:53:27.975Z,6.30
2022-10-09T09:55:56.623Z,5.80
2022-10-09T09:58:53.323Z,5.90
2022-10-09T10:01:30.850Z,6.20
2022-10-09T10:04:02.528Z,5.40
2022-10-09T10:06:44.147Z,6.30
2022-10-09T10:09:20.679Z,6.50
2022-10-09T10:11:55.173Z,6.80
2022-10-09T10:14:23.783Z,6.50
2022-10-09T10:16:54.318Z,6.80
2022-10-09T10:19:27.437Z,6.70
2022-10-09T10:22:06.700Z,6.10
2022-10-09T10:24:42.797Z,5.50
2022-10-09T10:27:30.202Z,6.40
2022-10-09T10:30:04.334Z,6.10
2022-10-09T10:33:02.375Z,7.20
2022-10-09T10:35:36.165Z,6.50
2022-10-09T10:38:13.113Z,6.40
2022-10-09T10:40:54.148Z,6.40
2022-10-09T10:43:46.172Z,6.80
2022-10-09T10:46:29.517Z,6.50
2022-10-09T10:49:02.252Z,6.20
2022-10-09T10:51:56.510Z,5.70
2022-10-09T10:54:46.791Z,6.20
2022-10-09T10:57:26.947Z,6.00
2022-10-09T11:00:11.173Z,5.90
2022-10-09T11:03:08.844Z,6.10
2022-10-09T11:05:41.840Z,6.10
2022-10-09T11:08:34.685Z,6.20
2022-10-09T11:11:12.100Z,5.50
2022-10-09T11:13:53.901Z,5.30
2022-10-09T11:16:36.918Z,5.60
2022-10-09T11:19:23.788Z,5.60
2022-10-09T11:22:19.158Z,5.30
2022-10-09T11:24:59.605Z,5.50
2022-10-09T11:28:04.835Z,5.40
2022-10-09T11:30:48.657Z,5.20
2022-10-09T11:33:50.260Z,5.70
2022-10-09T11:36:41.961Z,5.70
2022-10-09T11:39:20.482Z,6.30
2022-10-09T11:41:51.253Z,5.90
2022-10-09T11:44:39.143Z,5.10
2022-10-09T11:47:34.978Z,5.40
2022-10-09T11:50:28.651Z,5.40
2022-10-09T11:53:06.849Z,5.60
2022-10-09T11:55:35.361Z,6.00
2022-10-09T11:58:25.241Z,5.70
2022-10-09T12:00:56.724Z,5.70
2022-10-09T12:03:34.735Z,6.00
2022-10-09T12:06:16.808Z,5.90
2022-10-09T12:08:59.138Z,5.50
2022-10-09T12:11:28.617Z,5.80
2022-10-09T12:14:00.051Z,5.30
2022-10-09T12:16:45.858Z,6.00
2022-10-09T12:19:28.056Z,5.40
2022-10-09T12:21:58.609Z,5.00
2022-10-09T12:24:32.183Z,5.40
2022-10-09T12:27:03.332Z,5.70
2022-10-09T12:29:43.570Z,5.20
2022-10-09T12:32:23.391Z,5.40
2022-10-09T12:34:51.464Z,5.60
2022-10-09T12:37:22.697Z,5.60
2022-10-09T12:39:50.533Z,5.30
2022-10-09T12:42:24.438Z,5.70
2022-10-09T12:44:55.580Z,5.70
2022-10-09T12:47:29.363Z,5.60
2022-10-09T12:50:18.533Z,5.80
2022-10-09T12:52:54.075Z,5.60
2022-10-09T12:55:33.946Z,5.50
2022-10-09T12:58:29.434Z,5.80
2022-10-09T13:01:01.178Z,5.90
2022-10-09T13:03:54.537Z,5.80
2022-10-09T13:06:28.485Z,5.70
2022-10-09T13:09:02.576Z,6.40
2022-10-09T13:11:33.710Z,6.90
2022-10-09T13:14:02.040Z,6.10
2022-10-09T13:16:43.927Z,6.40
2022-10-09T13:19:40.735Z,6.60
2022-10-09T13:22:19.027Z,6.00
2022-10-09T13:24:57.422Z,6.30
2022-10-09T13:27:32.984Z,6.60
2022-10-09T13:30:01.728Z,6.40
2022-10-09T13:32:29.670Z,6.50
2022-10-09T13:34:58.288Z,6.60
2022-10-09T13:37:27.278Z,6.60
2022-10-09T13:39:57.473Z,6.40
2022-10-09T13:42:30.077Z,6.80
2022-10-09T13:44:58.592Z,6.70
2022-10-09T13:47:26.514Z,7.20
2022-10-09T13:49:55.039Z,6.60
2022-10-09T13:52:22.880Z,6.00
2022-10-09T13:54:50.746Z,6.50
2022-10-09T13:57:18.878Z,6.70
2022-10-09T13:59:46.952Z,6.40
2022-10-09T14:02:14.929Z,6.50
2022-10-09T14:04:42.901Z,6.60
2022-10-09T14:07:10.758Z,6.50
2022-10-09T14:09:38.771Z,7.20
2022-10-09T14:12:06.603Z,6.60
2022-10-09T14:14:34.580Z,7.30
2022-10-09T14:17:02.541Z,6.80
2022-10-09T14:19:30.367Z,6.40
2022-10-09T14:21:58.759Z,6.70
2022-10-09T14:24:27.667Z,7.20
2022-10-09T14:26:57.734Z,7.40
2022-10-09T14:29:25.661Z,7.90
2022-10-09T14:31:53.602Z,7.20
2022-10-09T14:34:22.145Z,8.30
2022-10-09T14:36:50.431Z,8.80
2022-10-09T14:39:18.258Z,8.60
2022-10-09T14:41:46.271Z,8.70
2022-10-09T14:44:14.194Z,8.70
2022-10-09T14:46:42.027Z,9.20
2022-10-09T14:49:11.153Z,9.80
2022-10-09T14:51:40.633Z,9.60
2022-10-09T14:54:10.736Z,8.60
2022-10-09T14:56:38.791Z,8.70
2022-10-09T14:59:06.934Z,8.40
2022-10-09T15:01:35.777Z,9.30
2022-10-09T15:04:07.372Z,9.50
2022-10-09T15:06:35.579Z,9.70
2022-10-09T15:09:06.072Z,9.20
2022-10-09T15:11:35.515Z,9.50
2022-10-09T15:14:04.521Z,9.90
2022-10-09T15:16:32.475Z,9.50
2022-10-09T15:19:00.421Z,10.30
2022-10-09T15:21:33.947Z,9.40
2022-10-09T15:24:03.517Z,9.40
2022-10-09T15:26:33.687Z,9.20
2022-10-09T15:29:05.056Z,9.30
2022-10-09T15:31:34.288Z,10.00
2022-10-09T15:34:03.402Z,9.90
2022-10-09T15:36:34.956Z,9.70
2022-10-09T15:39:06.130Z,9.90
2022-10-09T15:41:37.229Z,9.50
2022-10-09T15:44:16.611Z,10.00
2022-10-09T15:46:46.150Z,9.60
2022-10-09T15:49:14.479Z,8.60
2022-10-09T15:51:42.602Z,10.00
2022-10-09T15:54:12.055Z,9.30
2022-10-09T15:56:41.445Z,9.50
2022-10-09T15:59:13.711Z,9.40
2022-10-09T16:01:41.642Z,9.30
2022-10-09T16:04:10.096Z,10.00
2022-10-09T16:06:38.043Z,10.20
2022-10-09T16:09:06.200Z,9.00
2022-10-09T16:11:34.793Z,9.20
2022-10-09T16:14:02.691Z,9.10
2022-10-09T16:16:30.757Z,9.30
2022-10-09T16:19:00.205Z,9.70
2022-10-09T16:21:29.310Z,10.20
2022-10-09T16:23:59.519Z,11.10
2022-10-09T16:26:29.336Z,10.20
2022-10-09T16:28:59.179Z,10.30
2022-10-09T16:31:34.967Z,10.50
2022-10-09T16:34:05.121Z,9.90
2022-10-09T16:36:33.779Z,10.60
2022-10-09T16:39:01.679Z,10.20
2022-10-09T16:41:29.646Z,10.00
2022-10-09T16:43:59.933Z,10.90
2022-10-09T16:46:30.573Z,10.60
2022-10-09T16:48:59.891Z,10.30
2022-10-09T16:51:30.961Z,10.20
2022-10-09T16:54:00.466Z,9.60
2022-10-09T16:56:32.933Z,10.70
2022-10-09T16:59:04.278Z,10.10
2022-10-09T17:01:32.890Z,10.50
2022-10-09T17:04:01.188Z,10.60
2022-10-09T17:06:31.571Z,10.90
2022-10-09T17:08:59.848Z,10.60
2022-10-09T17:11:29.957Z,10.70
2022-10-09T17:13:58.141Z,10.10
2022-10-09T17:16:29.360Z,10.40
2022-10-09T17:18:58.124Z,10.60
2022-10-09T17:21:29.741Z,11.30
2022-10-09T17:24:03.802Z,11.50
2022-10-09T17:26:32.061Z,10.80
2022-10-09T17:29:01.068Z,11.10
2022-10-09T17:31:29.945Z,11.00
2022-10-09T17:34:00.323Z,11.50
2022-10-09T17:36:30.906Z,12.20
2022-10-09T17:38:59.071Z,11.60
2022-10-09T17:41:29.264Z,12.00
2022-10-09T17:43:58.464Z,12.40
2022-10-09T17:46:28.165Z,12.60
2022-10-09T17:48:58.494Z,12.10
2022-10-09T17:51:32.558Z,11.50
2022-10-09T17:54:04.917Z,11.90
2022-10-09T17:56:34.997Z,12.60
2022-10-09T17:59:03.999Z,12.10
2022-10-09T18:01:32.094Z,13.60
2022-10-09T18:04:00.176Z,10.80
2022-10-09T18:06:31.820Z,11.10
2022-10-09T18:09:00.192Z,11.40
2022-10-09T18:11:28.655Z,11.00
2022-10-09T18:13:56.665Z,11.60
2022-10-09T18:16:35.683Z,10.90
2022-10-09T18:19:14.884Z,11.00
2022-10-09T18:21:48.520Z,11.40
2022-10-09T18:24:17.489Z,11.20
2022-10-09T18:26:45.474Z,11.40
2022-10-09T18:29:14.064Z,11.40
2022-10-09T18:31:41.940Z,12.70
2022-10-09T18:34:10.628Z,11.20
2022-10-09T18:36:39.462Z,9.80
2022-10-09T18:39:09.966Z,10.40
2022-10-09T18:41:38.178Z,10.00
2022-10-09T18:44:12.642Z,10.60
2022-10-09T18:46:45.489Z,11.10
2022-10-09T18:49:16.036Z,11.20
2022-10-09T18:51:45.579Z,10.80
2022-10-09T18:54:17.913Z,11.00
2022-10-09T18:56:46.939Z,11.80
2022-10-09T18:59:18.544Z,11.10
2022-10-09T19:01:47.145Z,11.70
2022-10-09T19:04:15.543Z,11.10
2022-10-09T19:06:43.559Z,10.30
2022-10-09T19:09:11.413Z,11.20
2022-10-09T19:11:39.422Z,10.80
2022-10-09T19:14:07.319Z,11.90
2022-10-09T19:16:35.753Z,11.90
2022-10-09T19:19:04.090Z,11.60
2022-10-09T19:21:32.052Z,11.70
2022-10-09T19:24:03.828Z,12.20
2022-10-09T19:26:33.250Z,13.50
2022-10-09T19:29:01.806Z,13.50
2022-10-09T19:31:29.814Z,12.60
2022-10-09T19:34:00.186Z,13.20
2022-10-09T19:36:28.568Z,12.60
2022-10-09T19:38:56.858Z,13.80
2022-10-09T19:41:24.720Z,12.90
2022-10-09T19:43:53.080Z,12.10
2022-10-09T19:46:22.753Z,12.20
2022-10-09T19:48:51.524Z,11.90
2022-10-09T19:51:25.065Z,11.20
2022-10-09T19:53:53.936Z,10.50
2022-10-09T19:56:26.261Z,11.30
2022-10-09T19:58:55.485Z,9.70
2022-10-09T20:01:25.923Z,10.00
2022-10-09T20:04:02.742Z,10.50
2022-10-09T20:06:30.699Z,10.90
2022-10-09T20:08:58.833Z,11.10
2022-10-09T20:11:26.923Z,11.50
2022-10-09T20:13:56.602Z,11.50
2022-10-09T20:16:25.734Z,10.80
2022-10-09T20:18:55.457Z,10.90
2022-10-09T20:21:23.262Z,11.10
2022-10-09T20:23:51.938Z,11.50
2022-10-09T20:26:21.592Z,11.40
2022-10-09T20:28:50.540Z,11.70
2022-10-09T20:31:21.113Z,11.80
2022-10-09T20:33:50.278Z,11.60
2022-10-09T20:36:26.439Z,11.50
2022-10-09T20:38:56.799Z,10.90
2022-10-09T20:41:26.245Z,10.70
2022-10-09T20:43:57.008Z,10.90
2022-10-09T20:46:28.081Z,10.60
2022-10-09T20:48:56.813Z,10.40
2022-10-09T20:51:25.662Z,9.10
2022-10-09T20:53:56.105Z,9.90
2022-10-09T20:56:26.568Z,9.90
2022-10-09T20:58:55.861Z,9.70
2022-10-09T21:01:24.751Z,10.00
2022-10-09T21:03:52.711Z,9.90
2022-10-09T21:06:21.964Z,9.00
2022-10-09T21:08:50.514Z,9.00
2022-10-09T21:11:18.983Z,8.40
2022-10-09T21:13:48.175Z,8.80
2022-10-09T21:16:23.291Z,9.30
2022-10-09T21:19:01.012Z,9.50
2022-10-09T21:21:31.332Z,9.90
2022-10-09T21:24:00.664Z,11.10
2022-10-09T21:26:31.628Z,9.90
2022-10-09T21:29:00.225Z,10.40
2022-10-09T21:31:30.439Z,10.90
2022-10-09T21:34:01.119Z,11.00
2022-10-09T21:37:20.446Z,11.20
2022-10-09T21:39:43.176Z,10.20
2022-10-09T21:42:10.969Z,9.70
2022-10-09T21:44:38.809Z,11.20
2022-10-09T21:47:06.557Z,10.20
2022-10-09T21:49:34.402Z,10.10
2022-10-09T21:52:02.355Z,10.40
2022-10-09T21:54:30.135Z,9.20
2022-10-09T21:56:57.907Z,10.20
2022-10-09T21:59:25.786Z,10.50
2022-10-09T22:01:53.607Z,9.80
2022-10-09T22:04:21.978Z,9.60
2022-10-09T22:06:49.939Z,10.00
2022-10-09T22:09:17.767Z,9.40
2022-10-09T22:11:45.728Z,9.00
2022-10-09T22:14:13.633Z,9.00
2022-10-09T22:16:41.359Z,9.70
2022-10-09T22:19:09.106Z,9.10
2022-10-09T22:21:37.031Z,9.50
2022-10-09T22:24:04.911Z,9.20
2022-10-09T22:26:32.649Z,8.20
2022-10-09T22:29:00.380Z,8.40
2022-10-09T22:31:28.792Z,8.40
2022-10-09T22:33:59.625Z,8.20
2022-10-09T22:36:30.123Z,7.90
2022-10-09T22:39:00.441Z,7.80
2022-10-09T22:41:30.255Z,8.40
2022-10-09T22:43:59.684Z,7.90
2022-10-09T22:46:34.073Z,8.30
2022-10-09T22:49:02.356Z,8.80
2022-10-09T22:51:30.589Z,8.60
2022-10-09T22:53:59.776Z,7.80
2022-10-09T22:56:31.086Z,8.70
2022-10-09T22:58:59.189Z,8.60
2022-10-09T23:01:33.637Z,8.40
2022-10-09T23:04:07.056Z,8.90
2022-10-09T23:06:35.069Z,8.50
2022-10-09T23:09:05.474Z,8.00
2022-10-09T23:11:33.637Z,8.80
2022-10-09T23:14:01.941Z,8.90
2022-10-09T23:16:30.674Z,9.00
2022-10-09T23:19:05.430Z,7.70
2022-10-09T23:21:36.461Z,9.20
2022-10-09T23:24:05.650Z,9.30
2022-10-09T23:26:35.369Z,8.80
2022-10-09T23:29:09.485Z,8.90
2022-10-09T23:31:37.377Z,9.00
2022-10-09T23:34:07.698Z,7.90
2022-10-09T23:36:35.980Z,8.60
2022-10-09T23:39:06.119Z,8.50
2022-10-09T23:41:35.185Z,9.60
2022-10-09T23:44:03.684Z,9.80
2022-10-09T23:46:35.773Z,9.60
2022-10-09T23:49:04.698Z,9.70
2022-10-09T23:51:33.056Z,10.30
2022-10-09T23:54:01.003Z,10.10
2022-10-09T23:56:32.300Z,9.70
2022-10-09T23:59:02.704Z,10.00
